createdAt,value
2022-09-06T00:02:20.164Z,3.10
2022-09-06T00:04:48.858Z,2.67
2022-09-06T00:07:16.487Z,2.45
2022-09-06T00:09:43.810Z,2.72
2022-09-06T00:12:11.408Z,2.97
2022-09-06T00:14:38.741Z,2.30
2022-09-06T00:17:06.067Z,2.55
2022-09-06T00:19:33.734Z,2.78
2022-09-06T00:22:01.146Z,2.90
2022-09-06T00:24:28.483Z,2.47
2022-09-06T00:26:56.089Z,2.92
2022-09-06T00:29:23.425Z,2.53
2022-09-06T00:31:50.805Z,2.87
2022-09-06T00:34:18.418Z,2.60
2022-09-06T00:36:45.767Z,3.00
2022-09-06T00:39:13.124Z,2.83
2022-09-06T00:41:40.751Z,2.55
2022-09-06T00:44:08.115Z,2.70
2022-09-06T00:46:36.751Z,2.70
2022-09-06T00:49:07.582Z,2.62
2022-09-06T00:51:35.654Z,2.78
2022-09-06T00:54:07.908Z,2.60
2022-09-06T00:56:39.056Z,2.78
2022-09-06T00:59:06.916Z,2.87
2022-09-06T01:01:34.655Z,2.47
2022-09-06T01:04:02.619Z,2.67
2022-09-06T01:06:37.433Z,2.60
2022-09-06T01:09:23.676Z,2.30
2022-09-06T01:12:13.675Z,2.47
2022-09-06T01:15:03.635Z,2.60
2022-09-06T01:17:49.008Z,2.37
2022-09-06T01:20:32.950Z,2.20
2022-09-06T01:23:21.998Z,2.72
2022-09-06T01:26:10.935Z,2.40
2022-09-06T01:28:45.378Z,2.80
2022-09-06T01:31:35.564Z,2.33
2022-09-06T01:34:05.908Z,2.60
2022-09-06T01:37:06.257Z,2.50
2022-09-06T01:39:34.194Z,2.70
2022-09-06T01:42:07.631Z,2.92
2022-09-06T01:44:35.971Z,2.28
2022-09-06T01:47:21.547Z,2.78
2022-09-06T01:50:05.950Z,2.60
2022-09-06T01:52:36.613Z,2.87
2022-09-06T01:55:31.471Z,2.60
2022-09-06T01:58:35.210Z,2.42
2022-09-06T02:01:35.519Z,2.60
2022-09-06T02:04:15.288Z,2.80
2022-09-06T02:06:46.669Z,2.30
2022-09-06T02:09:20.720Z,2.75
2022-09-06T02:11:57.960Z,2.70
2022-09-06T02:14:36.278Z,2.95
2022-09-06T02:17:05.800Z,2.95
2022-09-06T02:19:40.640Z,2.70
2022-09-06T02:22:10.448Z,3.05
2022-09-06T02:24:40.670Z,3.03
2022-09-06T02:27:08.342Z,2.83
2022-09-06T02:29:35.818Z,2.87
2022-09-06T02:32:22.034Z,2.85
2022-09-06T02:34:54.480Z,2.80
2022-09-06T02:37:24.109Z,2.97
2022-09-06T02:39:51.869Z,2.83
2022-09-06T02:42:19.287Z,3.08
2022-09-06T02:44:46.924Z,2.83
2022-09-06T02:47:14.290Z,2.95
2022-09-06T02:49:41.603Z,2.70
2022-09-06T02:52:09.265Z,2.30
2022-09-06T02:54:36.596Z,3.17
2022-09-06T02:57:04.025Z,2.47
2022-09-06T02:59:32.382Z,2.92
2022-09-06T03:02:00.147Z,2.80
2022-09-06T03:04:27.834Z,2.97
2022-09-06T03:06:56.434Z,3.05
2022-09-06T03:09:24.749Z,3.10
2022-09-06T03:11:52.124Z,3.20
2022-09-06T03:14:19.992Z,3.20
2022-09-06T03:16:47.409Z,2.87
2022-09-06T03:19:14.790Z,3.42
2022-09-06T03:21:42.372Z,3.37
2022-09-06T03:24:09.726Z,3.08
2022-09-06T03:26:37.081Z,3.08
2022-09-06T03:29:04.650Z,3.30
2022-09-06T03:31:32.207Z,2.75
2022-09-06T03:33:59.998Z,2.92
2022-09-06T03:36:27.801Z,3.42
2022-09-06T03:38:55.289Z,3.25
2022-09-06T03:41:22.637Z,3.35
2022-09-06T03:43:50.225Z,3.12
2022-09-06T03:46:17.866Z,3.20
2022-09-06T03:48:45.271Z,2.87
2022-09-06T03:51:12.891Z,3.35
2022-09-06T03:53:40.299Z,3.35
2022-09-06T03:56:07.623Z,3.08
2022-09-06T03:58:35.223Z,3.47
2022-09-06T04:01:10.432Z,2.92
2022-09-06T04:03:38.883Z,2.80
2022-09-06T04:06:07.070Z,3.20
2022-09-06T04:08:35.519Z,3.17
2022-09-06T04:11:04.202Z,3.30
2022-09-06T04:13:32.823Z,2.97
2022-09-06T04:16:00.386Z,3.40
2022-09-06T04:18:28.367Z,3.58
2022-09-06T04:20:56.468Z,3.20
2022-09-06T04:23:25.416Z,3.80
2022-09-06T04:25:54.522Z,3.67
2022-09-06T04:28:22.832Z,4.18
2022-09-06T04:31:03.343Z,2.85
2022-09-06T04:33:33.470Z,3.50
2022-09-06T04:36:02.541Z,3.35
2022-09-06T04:38:31.082Z,3.12
2022-09-06T04:40:58.671Z,3.10
2022-09-06T04:43:26.006Z,3.40
2022-09-06T04:45:53.396Z,3.35
2022-09-06T04:48:21.352Z,3.65
2022-09-06T04:50:49.005Z,3.47
2022-09-06T04:53:16.349Z,3.30
2022-09-06T04:55:44.003Z,3.65
2022-09-06T04:58:11.341Z,3.45
2022-09-06T05:00:39.724Z,3.83
2022-09-06T05:03:07.338Z,3.33
2022-09-06T05:05:34.698Z,3.62
2022-09-06T05:08:02.177Z,3.12
2022-09-06T05:10:29.819Z,2.55
2022-09-06T05:12:57.142Z,2.95
2022-09-06T05:15:24.491Z,3.22
2022-09-06T05:17:52.137Z,2.80
2022-09-06T05:20:19.516Z,3.15
2022-09-06T05:22:54.372Z,3.00
2022-09-06T05:25:22.024Z,3.05
2022-09-06T05:27:49.429Z,2.33
2022-09-06T05:30:18.087Z,2.83
2022-09-06T05:32:45.963Z,2.90
2022-09-06T05:35:13.328Z,2.55
2022-09-06T05:37:40.926Z,3.08
2022-09-06T05:40:17.193Z,2.75
2022-09-06T05:42:44.576Z,2.85
2022-09-06T05:45:12.187Z,2.83
2022-09-06T05:47:39.576Z,2.65
2022-09-06T05:50:07.908Z,3.00
2022-09-06T05:52:36.562Z,2.60
2022-09-06T05:55:04.560Z,2.70
2022-09-06T05:57:31.981Z,2.80
2022-09-06T05:59:59.315Z,2.80
2022-09-06T06:02:26.982Z,3.08
2022-09-06T06:04:54.660Z,2.80
2022-09-06T06:07:22.068Z,2.33
2022-09-06T06:09:49.467Z,2.70
2022-09-06T06:12:17.084Z,2.80
2022-09-06T06:14:44.408Z,2.67
2022-09-06T06:17:11.743Z,3.45
2022-09-06T06:19:40.122Z,2.83
2022-09-06T06:22:07.430Z,2.78
2022-09-06T06:24:35.126Z,2.90
2022-09-06T06:27:02.795Z,2.80
2022-09-06T06:29:30.137Z,3.20
2022-09-06T06:31:57.499Z,2.83
2022-09-06T06:34:25.085Z,3.30
2022-09-06T06:36:52.856Z,2.78
2022-09-06T06:39:20.255Z,2.80
2022-09-06T06:41:49.688Z,3.15
2022-09-06T06:44:21.180Z,2.62
2022-09-06T06:46:48.937Z,2.70
2022-09-06T06:49:16.496Z,3.33
2022-09-06T06:51:43.851Z,2.83
2022-09-06T06:54:11.508Z,2.75
2022-09-06T06:56:44.803Z,2.95
2022-09-06T06:59:12.640Z,2.78
2022-09-06T07:01:40.307Z,2.95
2022-09-06T07:04:08.696Z,3.17
2022-09-06T07:12:25.691Z,3.10
2022-09-06T07:14:53.021Z,2.90
2022-09-06T07:17:20.336Z,2.87
2022-09-06T07:22:35.242Z,3.70
2022-09-06T07:25:04.612Z,3.03
2022-09-06T07:27:48.039Z,2.83
2022-09-06T07:30:16.834Z,3.47
2022-09-06T07:32:44.180Z,3.08
2022-09-06T07:35:14.301Z,3.22
2022-09-06T07:37:41.923Z,3.40
2022-09-06T07:40:10.205Z,3.12
2022-09-06T07:42:37.709Z,3.05
2022-09-06T07:45:05.646Z,3.03
2022-09-06T07:53:11.897Z,3.40
2022-09-06T07:55:43.437Z,3.10
2022-09-06T07:58:11.074Z,2.90
2022-09-06T08:00:41.113Z,3.15
2022-09-06T08:03:09.351Z,3.35
2022-09-06T08:11:13.741Z,3.60
2022-09-06T08:13:42.266Z,3.85
2022-09-06T08:16:11.778Z,3.45
2022-09-06T08:18:39.596Z,2.90
2022-09-06T08:21:12.959Z,3.05
2022-09-06T08:23:52.815Z,3.15
2022-09-06T08:26:22.371Z,2.95
2022-09-06T08:29:00.623Z,3.70
2022-09-06T08:31:29.633Z,3.53
2022-09-06T08:33:58.532Z,3.47
2022-09-06T08:36:31.743Z,3.35
2022-09-06T08:39:00.871Z,3.20
2022-09-06T08:41:34.323Z,3.45
2022-09-06T08:47:01.447Z,3.20
2022-09-06T08:49:34.407Z,3.30
2022-09-06T08:52:14.132Z,3.22
2022-09-06T08:54:52.951Z,3.10
2022-09-06T08:57:45.750Z,3.10
2022-09-06T09:00:13.841Z,3.47
2022-09-06T09:02:49.062Z,3.60
2022-09-06T09:05:31.028Z,3.42
2022-09-06T09:08:16.385Z,3.60
2022-09-06T09:10:47.545Z,3.30
2022-09-06T09:13:32.961Z,3.70
2022-09-06T09:16:00.669Z,3.72
2022-09-06T09:18:38.377Z,3.20
2022-09-06T09:21:06.213Z,3.20
2022-09-06T09:23:33.562Z,3.10
2022-09-06T09:26:04.970Z,3.10
2022-09-06T09:28:32.639Z,3.20
2022-09-06T09:31:00.062Z,3.20
2022-09-06T09:33:36.872Z,2.97
2022-09-06T09:36:14.019Z,3.00
2022-09-06T09:38:44.256Z,3.25
2022-09-06T09:41:27.398Z,3.33
2022-09-06T09:44:01.079Z,2.95
2022-09-06T09:46:36.526Z,3.05
2022-09-06T09:49:10.429Z,3.05
2022-09-06T09:51:42.276Z,3.47
2022-09-06T09:54:12.746Z,3.20
2022-09-06T09:56:47.785Z,3.12
2022-09-06T09:59:27.180Z,3.10
2022-09-06T10:02:01.416Z,3.00
2022-09-06T10:04:47.218Z,2.78
2022-09-06T10:07:23.152Z,3.47
2022-09-06T10:10:01.964Z,3.28
2022-09-06T10:12:35.536Z,3.08
2022-09-06T10:15:40.166Z,3.17
2022-09-06T10:18:17.701Z,3.20
2022-09-06T10:20:51.875Z,2.80
2022-09-06T10:27:08.280Z,3.00
2022-09-06T10:29:44.679Z,2.90
2022-09-06T10:32:42.052Z,3.08
2022-09-06T10:35:17.164Z,3.20
2022-09-06T10:37:48.573Z,2.78
2022-09-06T10:40:33.579Z,2.55
2022-09-06T10:43:03.608Z,2.72
2022-09-06T10:45:50.027Z,2.65
2022-09-06T10:48:30.621Z,2.58
2022-09-06T10:51:21.889Z,2.40
2022-09-06T10:54:01.759Z,2.25
2022-09-06T10:56:31.801Z,2.37
2022-09-06T10:59:37.386Z,2.70
2022-09-06T11:02:24.516Z,2.47
2022-09-06T11:13:19.640Z,2.10
2022-09-06T11:15:52.241Z,2.20
2022-09-06T11:18:29.787Z,2.30
2022-09-06T11:21:19.365Z,2.17
2022-09-06T11:24:22.460Z,2.12
2022-09-06T11:27:00.842Z,2.00
2022-09-06T11:29:30.062Z,2.08
2022-09-06T11:32:16.681Z,1.87
2022-09-06T11:34:55.422Z,2.70
2022-09-06T11:37:28.383Z,2.05
2022-09-06T11:42:53.623Z,2.00
2022-09-06T11:45:21.754Z,2.45
2022-09-06T11:47:53.060Z,2.00
2022-09-06T11:50:20.543Z,2.70
2022-09-06T11:52:59.738Z,2.22
2022-09-06T11:55:32.559Z,2.10
2022-09-06T11:58:02.439Z,2.10
2022-09-06T12:00:30.141Z,2.22
2022-09-06T12:06:24.870Z,2.55
2022-09-06T12:08:53.861Z,2.10
2022-09-06T12:11:41.792Z,1.95
2022-09-06T12:14:41.223Z,2.75
2022-09-06T12:17:09.015Z,1.90
2022-09-06T12:19:48.795Z,2.12
2022-09-06T12:22:32.778Z,1.92
2022-09-06T12:25:40.495Z,2.10
2022-09-06T12:28:19.421Z,2.37
2022-09-06T12:30:48.082Z,2.05
2022-09-06T12:33:24.154Z,1.90
2022-09-06T12:38:25.124Z,2.03
2022-09-06T12:40:58.335Z,2.00
2022-09-06T12:43:26.250Z,2.15
2022-09-06T12:45:53.899Z,1.70
2022-09-06T12:48:30.231Z,1.95
2022-09-06T12:51:13.518Z,1.90
2022-09-06T12:53:40.928Z,1.92
2022-09-06T12:56:12.379Z,2.20
2022-09-06T12:58:39.906Z,2.03
2022-09-06T13:01:24.471Z,2.30
2022-09-06T13:04:22.182Z,1.60
2022-09-06T13:06:49.732Z,2.03
2022-09-06T13:09:19.176Z,1.62
2022-09-06T13:11:51.023Z,2.15
2022-09-06T13:14:26.274Z,2.15
2022-09-06T13:16:57.068Z,2.10
2022-09-06T13:19:39.182Z,2.20
2022-09-06T13:24:35.343Z,2.00
2022-09-06T13:27:30.664Z,2.33
2022-09-06T13:30:42.082Z,2.10
2022-09-06T13:33:23.478Z,2.05
2022-09-06T13:36:11.117Z,2.33
2022-09-06T13:38:43.759Z,2.30
2022-09-06T13:41:26.319Z,2.17
2022-09-06T13:44:04.381Z,2.50
2022-09-06T13:46:33.244Z,2.20
2022-09-06T13:49:00.689Z,2.53
2022-09-06T13:51:28.322Z,2.17
2022-09-06T13:54:10.576Z,2.92
2022-09-06T13:56:39.219Z,2.35
2022-09-06T13:59:07.672Z,2.17
2022-09-06T14:01:35.166Z,2.47
2022-09-06T14:04:03.626Z,1.92
2022-09-06T14:06:36.095Z,2.50
2022-09-06T14:09:08.568Z,2.35
2022-09-06T14:11:36.849Z,2.37
2022-09-06T14:14:05.100Z,2.00
2022-09-06T14:16:33.771Z,1.67
2022-09-06T14:19:01.369Z,1.98
2022-09-06T14:21:28.975Z,1.80
2022-09-06T14:23:58.830Z,2.10
2022-09-06T14:26:28.976Z,2.33
2022-09-06T14:28:56.655Z,2.70
2022-09-06T14:31:26.195Z,2.00
2022-09-06T14:33:54.794Z,2.37
2022-09-06T14:36:48.685Z,2.30
2022-09-06T14:39:16.039Z,2.00
2022-09-06T14:41:43.742Z,2.12
2022-09-06T14:44:11.398Z,1.85
2022-09-06T14:46:38.808Z,1.80
2022-09-06T14:49:09.962Z,1.95
2022-09-06T14:51:38.503Z,2.00
2022-09-06T14:54:13.819Z,2.20
2022-09-06T14:56:44.136Z,2.15
2022-09-06T14:59:11.987Z,2.30
2022-09-06T15:01:39.802Z,1.98
2022-09-06T15:04:09.192Z,2.05
2022-09-06T15:06:39.192Z,2.20
2022-09-06T15:09:07.919Z,2.75
2022-09-06T15:11:36.721Z,3.00
2022-09-06T15:14:07.769Z,3.95
2022-09-06T15:16:35.898Z,4.10
2022-09-06T15:19:03.743Z,4.93
2022-09-06T15:21:32.099Z,5.40
2022-09-06T15:24:00.333Z,5.40
2022-09-06T15:26:28.231Z,5.60
2022-09-06T15:28:58.539Z,5.97
2022-09-06T15:31:25.923Z,5.68
2022-09-06T15:33:53.854Z,6.00
2022-09-06T15:36:21.906Z,5.35
2022-09-06T15:38:50.724Z,5.60
2022-09-06T15:41:20.882Z,5.60
2022-09-06T15:43:50.454Z,5.70
2022-09-06T15:46:21.185Z,5.40
2022-09-06T15:48:51.015Z,6.12
2022-09-06T15:51:20.424Z,6.10
2022-09-06T15:53:48.035Z,5.15
2022-09-06T15:56:17.137Z,4.93
2022-09-06T15:58:47.907Z,4.68
2022-09-06T16:01:17.653Z,4.45
2022-09-06T16:03:46.404Z,5.20
2022-09-06T16:06:25.869Z,5.55
2022-09-06T16:09:03.541Z,5.55
2022-09-06T16:11:32.730Z,5.82
2022-09-06T16:14:00.455Z,6.53
2022-09-06T16:16:28.574Z,6.03
2022-09-06T16:19:16.866Z,6.55
2022-09-06T16:21:44.478Z,5.82
2022-09-06T16:24:13.536Z,5.55
2022-09-06T16:26:43.311Z,5.20
2022-09-06T16:29:12.244Z,4.57
2022-09-06T16:31:40.746Z,4.72
2022-09-06T16:34:11.802Z,4.87
2022-09-06T16:36:39.931Z,5.07
2022-09-06T16:39:07.840Z,5.12
2022-09-06T16:41:41.112Z,4.80
2022-09-06T16:44:10.282Z,4.85
2022-09-06T16:46:40.016Z,5.53
2022-09-06T16:49:07.632Z,5.43
2022-09-06T16:51:35.288Z,5.03
2022-09-06T16:54:02.791Z,4.43
2022-09-06T16:56:33.415Z,5.50
2022-09-06T16:59:02.861Z,5.28
2022-09-06T17:01:31.520Z,6.12
2022-09-06T17:04:01.693Z,5.05
2022-09-06T17:06:29.559Z,6.25
2022-09-06T17:09:00.428Z,5.97
2022-09-06T17:11:28.578Z,5.87
2022-09-06T17:13:56.910Z,6.18
2022-09-06T17:16:43.606Z,5.35
2022-09-06T17:19:11.587Z,5.32
2022-09-06T17:21:40.018Z,5.57
2022-09-06T17:24:08.221Z,5.72
2022-09-06T17:26:39.135Z,5.68
2022-09-06T17:29:08.518Z,6.53
2022-09-06T17:31:36.979Z,6.25
2022-09-06T17:34:04.769Z,7.20
2022-09-06T17:36:33.133Z,6.28
2022-09-06T17:39:08.638Z,6.45
2022-09-06T17:41:38.855Z,6.87
2022-09-06T17:44:08.163Z,6.43
2022-09-06T17:46:35.482Z,5.93
2022-09-06T17:49:04.681Z,5.70
2022-09-06T17:51:33.027Z,5.90
2022-09-06T17:54:00.371Z,5.87
2022-09-06T17:56:28.999Z,5.40
2022-09-06T17:58:59.325Z,5.00
2022-09-06T18:01:29.589Z,4.78
2022-09-06T18:03:58.525Z,5.22
2022-09-06T18:06:28.107Z,5.82
2022-09-06T18:08:58.008Z,5.05
2022-09-06T18:11:28.039Z,4.70
2022-09-06T18:13:56.346Z,5.00
2022-09-06T18:16:24.272Z,5.18
2022-09-06T18:18:54.491Z,5.80
2022-09-06T18:21:22.531Z,5.80
2022-09-06T18:23:49.930Z,6.03
2022-09-06T18:26:17.769Z,6.40
2022-09-06T18:28:45.098Z,6.30
2022-09-06T18:31:14.817Z,6.65
2022-09-06T18:33:43.010Z,6.32
2022-09-06T18:36:11.479Z,6.68
2022-09-06T18:38:39.961Z,6.57
2022-09-06T18:41:09.019Z,6.15
2022-09-06T18:43:39.777Z,6.20
2022-09-06T18:46:15.924Z,6.53
2022-09-06T18:48:43.702Z,6.50
2022-09-06T18:51:13.406Z,6.22
2022-09-06T18:53:44.960Z,5.75
2022-09-06T18:56:14.077Z,6.50
2022-09-06T18:58:42.230Z,6.35
2022-09-06T19:01:19.702Z,6.72
2022-09-06T19:03:47.615Z,5.85
2022-09-06T19:06:20.384Z,6.07
2022-09-06T19:09:13.695Z,6.22
2022-09-06T19:11:46.904Z,5.90
2022-09-06T19:14:14.731Z,6.10
2022-09-06T19:16:42.435Z,6.40
2022-09-06T19:19:11.651Z,6.95
2022-09-06T19:21:42.240Z,6.43
2022-09-06T19:24:11.598Z,6.47
2022-09-06T19:26:41.907Z,6.55
2022-09-06T19:29:48.092Z,6.78
2022-09-06T19:32:15.868Z,6.45
2022-09-06T19:34:43.240Z,6.03
2022-09-06T19:37:11.123Z,6.30
2022-09-06T19:39:38.878Z,6.20
2022-09-06T19:42:06.403Z,7.45
2022-09-06T19:44:33.850Z,6.90
2022-09-06T19:47:03.709Z,7.35
2022-09-06T19:49:54.346Z,7.65
2022-09-06T19:52:22.781Z,7.00
2022-09-06T19:54:50.165Z,6.87
2022-09-06T19:57:17.517Z,7.53
2022-09-06T19:59:45.199Z,7.32
2022-09-06T20:02:13.370Z,7.32
2022-09-06T20:04:41.558Z,6.85
2022-09-06T20:07:08.910Z,6.90
2022-09-06T20:09:36.449Z,6.97
2022-09-06T20:12:04.804Z,6.50
2022-09-06T20:14:32.146Z,7.00
2022-09-06T20:17:29.317Z,7.15
2022-09-06T20:19:48.725Z,6.72
2022-09-06T20:22:16.042Z,6.50
2022-09-06T20:24:43.370Z,6.53
2022-09-06T20:27:10.949Z,7.07
2022-09-06T20:29:38.269Z,6.85
2022-09-06T20:32:05.724Z,7.40
2022-09-06T20:34:34.247Z,7.10
2022-09-06T20:37:01.571Z,6.70
2022-09-06T20:39:29.019Z,7.05
2022-09-06T20:41:56.648Z,6.43
2022-09-06T20:44:24.066Z,7.05
2022-09-06T20:46:51.462Z,6.93
2022-09-06T20:49:21.432Z,6.72
2022-09-06T20:51:48.879Z,6.40
2022-09-06T20:54:16.291Z,7.20
2022-09-06T20:56:44.184Z,6.70
2022-09-06T20:59:12.462Z,6.30
2022-09-06T21:01:42.040Z,6.10
2022-09-06T21:04:10.975Z,7.37
2022-09-06T21:06:39.502Z,6.68
2022-09-06T21:09:13.465Z,6.80
2022-09-06T21:11:41.760Z,6.12
2022-09-06T21:14:09.591Z,6.60
2022-09-06T21:16:37.858Z,7.22
2022-09-06T21:19:07.187Z,7.03
2022-09-06T21:21:35.250Z,6.50
2022-09-06T21:24:04.901Z,5.82
2022-09-06T21:26:32.968Z,6.20
2022-09-06T21:29:00.354Z,6.03
2022-09-06T21:31:33.593Z,6.65
2022-09-06T21:34:05.568Z,6.85
2022-09-06T21:36:35.616Z,6.78
2022-09-06T21:39:05.926Z,6.47
2022-09-06T21:41:36.326Z,7.05
2022-09-06T21:44:05.056Z,7.12
2022-09-06T21:46:37.432Z,6.68
2022-09-06T21:49:07.897Z,7.40
2022-09-06T21:51:58.567Z,6.82
2022-09-06T21:54:26.256Z,7.43
2022-09-06T21:56:53.593Z,6.60
2022-09-06T21:59:20.994Z,7.35
2022-09-06T22:04:16.445Z,8.10
2022-09-06T22:06:43.769Z,7.80
2022-09-06T22:09:11.972Z,8.05
2022-09-06T22:11:42.031Z,7.12
2022-09-06T22:14:11.664Z,7.22
2022-09-06T22:16:39.945Z,7.80
2022-09-06T22:19:09.098Z,7.35
2022-09-06T22:21:38.506Z,7.22
2022-09-06T22:24:08.546Z,7.90
2022-09-06T22:26:37.196Z,7.45
2022-09-06T22:29:06.210Z,7.25
2022-09-06T22:31:34.472Z,7.53
2022-09-06T22:34:02.604Z,7.05
2022-09-06T22:36:30.058Z,7.47
2022-09-06T22:41:27.127Z,7.80
2022-09-06T22:43:54.813Z,8.25
2022-09-06T22:46:23.069Z,7.85
2022-09-06T22:48:50.793Z,7.45
2022-09-06T22:51:18.210Z,7.03
2022-09-06T22:53:45.578Z,7.32
2022-09-06T22:56:13.267Z,8.05
2022-09-06T22:58:40.626Z,7.62
2022-09-06T23:01:11.247Z,8.20
2022-09-06T23:03:39.175Z,7.50
2022-09-06T23:06:06.788Z,7.90
2022-09-06T23:08:35.979Z,7.53
2022-09-06T23:11:06.784Z,7.37
2022-09-06T23:13:34.526Z,8.43
2022-09-06T23:16:04.066Z,7.82
2022-09-06T23:18:32.078Z,7.75
2022-09-06T23:21:13.268Z,7.70
2022-09-06T23:23:41.574Z,7.47
2022-09-06T23:26:11.255Z,7.37
2022-09-06T23:28:38.956Z,7.20
2022-09-06T23:31:09.144Z,7.93
2022-09-06T23:33:37.236Z,7.43
2022-09-06T23:36:06.519Z,6.97
2022-09-06T23:38:35.765Z,7.30
2022-09-06T23:41:04.055Z,6.97
2022-09-06T23:43:31.828Z,6.80
2022-09-06T23:45:59.453Z,7.00
2022-09-06T23:48:26.965Z,7.68
2022-09-06T23:50:54.400Z,6.70
2022-09-06T23:53:22.007Z,7.05
2022-09-06T23:55:49.371Z,7.03
2022-09-06T23:58:16.829Z,6.97
